Time;durP1;ratioP1;P1;durP2;ratioP2;P2;SDS_P1;SDS_P2;PMS_P1;PMS_P2;Temp;Humidity;BMP_temperature;BMP_pressure;BME280_temperature;BME280_humidity;BME280_pressure;Samples;Min_cycle;Max_cycle;Signal;HPM_P1;HPM_P2
2022/10/10 00:01:12;;;;;;;9.27;4.68;;;;;;;9.80;92.44;101289.94;5029507;28;20110;-70
2022/10/10 00:03:38;;;;;;;6.82;4.95;;;;;;;9.73;94.15;101289.09;5028199;28;20037;-69
2022/10/10 00:06:04;;;;;;;6.78;4.90;;;;;;;9.72;93.86;101292.84;5033383;28;20018;-71
2022/10/10 00:08:29;;;;;;;9.30;4.78;;;;;;;9.65;94.04;101292.84;5033360;28;20033;-70
2022/10/10 00:10:54;;;;;;;8.63;4.68;;;;;;;9.65;95.96;101286.63;5034442;28;20377;-71
2022/10/10 00:13:20;;;;;;;9.27;5.03;;;;;;;9.63;95.69;101283.28;5034950;28;20048;-71
2022/10/10 00:15:46;;;;;;;7.15;4.63;;;;;;;9.63;97.66;101280.59;5036063;28;20064;-70
2022/10/10 00:18:11;;;;;;;8.60;5.20;;;;;;;9.58;96.00;101276.63;5031037;28;20042;-69
2022/10/10 00:20:36;;;;;;;7.72;5.07;;;;;;;9.61;95.14;101278.09;5014012;28;20038;-69
2022/10/10 00:23:01;;;;;;;9.50;5.35;;;;;;;9.53;97.47;101272.91;5014092;28;20093;-69
2022/10/10 00:25:27;;;;;;;9.05;5.65;;;;;;;9.52;97.36;101276.63;5014435;28;20018;-71
2022/10/10 00:27:53;;;;;;;8.43;5.28;;;;;;;9.49;95.67;101277.06;5022443;28;20112;-70
2022/10/10 00:30:18;;;;;;;6.88;5.30;;;;;;;9.48;98.07;101273.53;5034420;28;20023;-71
2022/10/10 00:32:43;;;;;;;8.70;5.25;;;;;;;9.44;97.05;101271.44;5034071;28;20100;-71
2022/10/10 00:35:09;;;;;;;8.57;5.10;;;;;;;9.40;99.43;101273.72;5033704;28;20100;-70
2022/10/10 00:37:34;;;;;;;5.90;5.00;;;;;;;9.40;99.15;101268.31;5025084;28;20018;-69
2022/10/10 00:39:59;;;;;;;10.10;5.10;;;;;;;9.34;99.27;101269.97;5014141;28;20108;-69
2022/10/10 00:42:25;;;;;;;7.47;5.30;;;;;;;9.40;99.56;101268.31;5013076;28;20049;-70
2022/10/10 00:45:24;;;;;;;8.32;4.97;;;;;;;9.43;100.00;101267.91;5019759;28;20052;-69
2022/10/10 00:47:54;;;;;;;9.73;5.53;;;;;;;9.37;100.00;101260.63;5029155;28;20030;-71
2022/10/10 00:50:21;;;;;;;7.35;5.35;;;;;;;9.35;97.59;101258.13;5045450;28;20479;-71
2022/10/10 00:52:46;;;;;;;7.88;5.50;;;;;;;9.30;100.00;101255.22;5013880;28;20026;-71
2022/10/10 00:55:13;;;;;;;7.38;5.07;;;;;;;9.31;100.00;101258.75;5013497;28;20018;-69
2022/10/10 00:57:39;;;;;;;11.82;5.55;;;;;;;9.30;100.00;101257.94;5012207;28;20454;-70
2022/10/10 01:00:05;;;;;;;8.00;5.43;;;;;;;9.19;100.00;101259.38;5027966;28;20024;-71
2022/10/10 01:02:30;;;;;;;9.15;5.28;;;;;;;9.17;100.00;101247.94;5051143;28;20033;-69
2022/10/10 01:04:56;;;;;;;8.77;5.50;;;;;;;9.20;100.00;101247.53;5053353;28;20024;-70
2022/10/10 01:07:25;;;;;;;9.63;5.32;;;;;;;9.24;100.00;101247.97;5042811;28;20045;-71
2022/10/10 01:09:53;;;;;;;10.00;5.80;;;;;;;9.22;100.00;101244.63;5013545;28;20068;-70
2022/10/10 01:12:35;;;;;;;11.25;5.85;;;;;;;9.24;100.00;101245.25;5013629;28;20074;-69
2022/10/10 01:15:07;;;;;;;10.25;5.28;;;;;;;9.21;100.00;101237.56;5024415;28;20017;-68
2022/10/10 01:17:55;;;;;;;7.35;5.18;;;;;;;9.16;100.00;101240.91;5026362;28;20030;-69
2022/10/10 01:20:43;;;;;;;9.13;5.20;;;;;;;9.17;100.00;101244.41;5012349;28;20354;-71
2022/10/10 01:23:35;;;;;;;9.15;5.38;;;;;;;9.19;100.00;101239.63;5012974;28;20037;-69
2022/10/10 01:26:16;;;;;;;;;;;;;;;9.31;98.32;101247.94;5028800;28;20025;-71
2022/10/10 01:28:51;;;;;;;9.50;5.70;;;;;;;9.15;100.00;101238.38;5023733;28;19913;-71
2022/10/10 01:31:21;;;;;;;8.20;5.32;;;;;;;9.12;100.00;101242.34;5031960;28;20064;-71
2022/10/10 01:34:17;;;;;;;12.25;5.88;;;;;;;9.13;100.00;101241.28;5033173;28;20029;-70
2022/10/10 01:37:00;;;;;;;8.75;5.97;;;;;;;9.02;100.00;101234.63;5033028;28;20061;-69
2022/10/10 01:39:44;;;;;;;11.05;5.45;;;;;;;9.06;100.00;101229.66;5013179;28;20465;-71
2022/10/10 01:42:18;;;;;;;11.23;5.60;;;;;;;9.08;100.00;101232.97;5012815;28;20029;-71
2022/10/10 01:44:45;;;;;;;6.95;5.25;;;;;;;9.05;100.00;101230.69;5025140;28;20025;-69
2022/10/10 01:47:11;;;;;;;9.15;5.30;;;;;;;9.02;100.00;101231.91;5023275;28;20061;-70
2022/10/10 01:49:38;;;;;;;9.05;5.72;;;;;;;9.05;100.00;101223.41;5012576;28;20025;-71
2022/10/10 01:52:52;;;;;;;8.18;5.63;;;;;;;9.03;100.00;101225.50;5012668;28;20018;-69
2022/10/10 01:55:39;;;;;;;7.05;5.22;;;;;;;9.00;100.00;101223.22;5006932;28;20488;-70
2022/10/10 01:58:17;;;;;;;9.63;5.32;;;;;;;8.98;100.00;101219.91;5021176;28;20077;-71
2022/10/10 02:01:27;;;;;;;8.13;5.30;;;;;;;9.03;100.00;101220.09;5039940;28;20048;-71
2022/10/10 02:04:04;;;;;;;7.60;5.90;;;;;;;8.98;100.00;101219.03;5007291;28;20124;-71
2022/10/10 02:06:56;;;;;;;8.93;5.47;;;;;;;9.04;100.00;101216.38;5012236;28;20022;-69
2022/10/10 02:09:30;;;;;;;11.40;5.60;;;;;;;8.99;100.00;101213.44;5007449;28;20092;-70
2022/10/10 02:11:57;;;;;;;7.60;5.55;;;;;;;8.98;100.00;101206.41;5011378;28;20025;-71
2022/10/10 02:14:29;;;;;;;10.20;5.97;;;;;;;8.93;100.00;101208.03;5026683;28;20025;-70
2022/10/10 02:16:57;;;;;;;;;;;;;;;9.11;100.00;101204.75;5014998;28;20531;-69
2022/10/10 02:19:24;;;;;;;7.88;5.53;;;;;;;8.97;100.00;101202.03;5012371;28;19909;-71
2022/10/10 02:21:51;;;;;;;6.93;5.30;;;;;;;8.92;100.00;101200.97;5012335;28;20369;-69
2022/10/10 02:24:19;;;;;;;9.98;5.60;;;;;;;8.89;100.00;101201.38;5012621;28;20026;-71
2022/10/10 02:26:51;;;;;;;10.55;5.85;;;;;;;8.86;100.00;101197.22;5013525;28;20030;-69
2022/10/10 02:29:20;;;;;;;8.35;5.00;;;;;;;8.89;100.00;101196.81;5027820;28;20029;-69
2022/10/10 02:31:57;;;;;;;8.05;5.20;;;;;;;8.89;100.00;101195.97;5032411;28;20033;-69
2022/10/10 02:34:27;;;;;;;6.90;5.28;;;;;;;8.84;100.00;101194.72;5032318;28;20029;-71
2022/10/10 02:36:58;;;;;;;8.55;5.80;;;;;;;8.86;100.00;101191.81;5031138;28;20116;-71
2022/10/10 02:39:29;;;;;;;8.90;5.40;;;;;;;8.84;100.00;101183.09;5032189;28;20025;-70
2022/10/10 02:41:54;;;;;;;;;;;;;;;9.00;100.00;101182.72;5032501;28;20021;-70
2022/10/10 02:44:22;;;;;;;8.38;5.00;;;;;;;8.81;100.00;101172.72;5033408;28;19909;-72
2022/10/10 02:46:47;;;;;;;11.02;5.75;;;;;;;8.80;100.00;101177.31;5015446;28;20149;-69
2022/10/10 02:49:13;;;;;;;7.82;5.13;;;;;;;8.82;100.00;101169.00;5012176;28;20064;-69
2022/10/10 02:51:38;;;;;;;11.60;5.47;;;;;;;8.79;100.00;101167.53;5012270;28;20021;-71
2022/10/10 02:54:07;;;;;;;12.38;5.88;;;;;;;8.76;100.00;101164.44;5027412;28;20516;-71
2022/10/10 02:56:32;;;;;;;8.20;5.38;;;;;;;8.79;100.00;101169.41;5015115;28;20346;-71
2022/10/10 02:58:58;;;;;;;8.23;5.30;;;;;;;8.75;100.00;101166.28;5029463;28;20032;-71
2022/10/10 03:01:23;;;;;;;9.65;5.38;;;;;;;8.77;100.00;101157.97;5031861;28;20040;-69
2022/10/10 03:03:49;;;;;;;8.43;5.32;;;;;;;8.77;100.00;101161.53;5036045;28;20040;-70
2022/10/10 03:06:14;;;;;;;12.13;5.80;;;;;;;8.79;100.00;101164.00;5025031;28;20358;-69
2022/10/10 03:08:39;;;;;;;7.25;5.25;;;;;;;8.76;100.00;101154.44;5031236;28;20061;-71
2022/10/10 03:11:05;;;;;;;8.63;5.28;;;;;;;8.75;100.00;101151.97;5015610;28;20034;-70
2022/10/10 03:13:31;;;;;;;9.27;5.15;;;;;;;8.75;100.00;101157.34;5027018;28;20039;-70
2022/10/10 03:15:57;;;;;;;11.05;5.22;;;;;;;8.74;100.00;101148.44;5017923;28;20026;-70
2022/10/10 03:18:23;;;;;;;8.85;5.05;;;;;;;8.77;100.00;101160.66;5015533;28;20018;-70
2022/10/10 03:20:53;;;;;;;8.43;5.07;;;;;;;8.75;100.00;101149.25;5015592;28;20100;-68
2022/10/10 03:23:20;;;;;;;10.50;5.33;;;;;;;8.76;100.00;101148.25;5015355;28;20354;-71
2022/10/10 03:25:45;;;;;;;7.60;4.90;;;;;;;8.74;100.00;101144.91;5014927;28;20022;-70
2022/10/10 03:28:11;;;;;;;9.73;5.55;;;;;;;8.75;100.00;101147.38;5030191;28;20032;-71
2022/10/10 03:30:38;;;;;;;8.70;5.28;;;;;;;8.73;100.00;101143.25;5035491;28;20100;-69
2022/10/10 03:33:04;;;;;;;10.45;5.10;;;;;;;8.75;100.00;101155.47;5035361;28;20025;-69
2022/10/10 03:35:29;;;;;;;6.82;4.80;;;;;;;8.73;100.00;101154.03;5031630;28;20529;-71
2022/10/10 03:37:56;;;;;;;10.13;4.97;;;;;;;8.72;100.00;101153.19;5015365;28;20101;-71
2022/10/10 03:40:21;;;;;;;10.48;4.93;;;;;;;8.78;100.00;101151.56;5015309;28;20025;-68
2022/10/10 03:42:47;;;;;;;10.30;5.40;;;;;;;8.76;100.00;101148.25;5044489;28;20385;-69
2022/10/10 03:45:12;;;;;;;10.10;4.95;;;;;;;8.77;100.00;101150.72;5032638;28;20473;-68
2022/10/10 03:47:37;;;;;;;8.15;4.72;;;;;;;8.81;100.00;101159.22;5040435;28;20049;-71
2022/10/10 03:50:03;;;;;;;8.82;5.05;;;;;;;8.80;100.00;101154.88;5015071;28;20459;-70
2022/10/10 03:52:28;;;;;;;9.60;4.95;;;;;;;8.78;100.00;101159.66;5014775;28;20072;-69
2022/10/10 03:54:53;;;;;;;8.07;4.50;;;;;;;8.77;100.00;101160.66;5017856;28;20445;-70
2022/10/10 03:57:19;;;;;;;8.38;5.18;;;;;;;8.75;100.00;101150.09;5030297;28;20472;-71
2022/10/10 03:59:44;;;;;;;9.50;5.00;;;;;;;8.79;100.00;101161.31;5033420;28;20116;-71
2022/10/10 04:02:09;;;;;;;7.25;4.68;;;;;;;8.74;100.00;101150.28;5031922;28;20021;-71
2022/10/10 04:04:35;;;;;;;9.80;5.20;;;;;;;8.69;100.00;101151.72;5033106;28;20017;-70
2022/10/10 04:07:00;;;;;;;7.50;5.13;;;;;;;8.72;100.00;101157.78;5014322;28;20172;-69
2022/10/10 04:09:25;;;;;;;9.32;4.93;;;;;;;8.73;100.00;101151.34;5013437;28;20027;-70
2022/10/10 04:12:00;;;;;;;7.75;4.90;;;;;;;8.74;100.00;101150.28;5023825;28;20056;-71
2022/10/10 04:14:26;;;;;;;10.65;4.88;;;;;;;8.71;100.00;101151.56;5034461;28;20025;-70
2022/10/10 04:16:51;;;;;;;10.20;5.28;;;;;;;8.69;100.00;101154.44;5033313;28;20035;-70
2022/10/10 04:19:16;;;;;;;7.20;4.82;;;;;;;8.66;100.00;101146.75;5034090;28;20033;-69
2022/10/10 04:21:42;;;;;;;9.38;5.03;;;;;;;8.64;100.00;101154.22;5034066;28;20035;-68
2022/10/10 04:24:07;;;;;;;10.20;5.30;;;;;;;8.58;100.00;101146.94;5034728;28;20034;-68
2022/10/10 04:26:33;;;;;;;7.07;4.80;;;;;;;8.55;100.00;101147.38;5026778;28;20044;-69
2022/10/10 04:28:58;;;;;;;7.78;5.00;;;;;;;8.56;100.00;101149.03;5024431;28;20029;-69
2022/10/10 04:31:23;;;;;;;10.60;5.07;;;;;;;8.57;100.00;101150.66;5014188;28;20075;-69
2022/10/10 04:33:49;;;;;;;7.50;4.90;;;;;;;8.54;100.00;101147.56;5014122;28;20037;-71
2022/10/10 04:36:14;;;;;;;9.27;4.75;;;;;;;8.52;100.00;101148.59;5013629;28;20108;-70
2022/10/10 04:38:40;;;;;;;8.02;5.10;;;;;;;8.54;100.00;101151.09;5014073;28;20022;-70
2022/10/10 04:41:05;;;;;;;9.02;4.80;;;;;;;8.47;100.00;101147.53;5022521;28;20047;-70
2022/10/10 04:43:30;;;;;;;7.30;5.10;;;;;;;8.43;100.00;101148.97;5033666;28;20369;-70
2022/10/10 04:45:57;;;;;;;6.72;5.03;;;;;;;8.39;100.00;101145.81;5031948;28;20044;-71
2022/10/10 04:48:22;;;;;;;8.07;5.10;;;;;;;8.41;100.00;101145.63;5032465;28;20487;-71
2022/10/10 04:50:56;;;;;;;7.95;4.85;;;;;;;8.41;100.00;101151.88;5033659;28;20013;-68
2022/10/10 04:53:23;;;;;;;8.45;5.20;;;;;;;8.38;100.00;101144.19;5033683;28;20021;-71
2022/10/10 04:55:48;;;;;;;7.90;5.03;;;;;;;8.39;100.00;101143.13;5031062;28;20052;-71
2022/10/10 04:58:14;;;;;;;6.50;4.85;;;;;;;8.39;100.00;101147.69;5033387;28;20072;-69
2022/10/10 05:00:40;;;;;;;8.77;5.32;;;;;;;8.32;100.00;101137.72;5031554;28;20053;-69
2022/10/10 05:03:06;;;;;;;7.00;4.93;;;;;;;8.30;100.00;101144.34;5033836;28;20033;-70
2022/10/10 05:05:32;;;;;;;6.93;4.68;;;;;;;8.31;100.00;101136.06;5031912;28;20076;-69
2022/10/10 05:07:57;;;;;;;8.68;5.15;;;;;;;8.30;100.00;101139.81;5033748;28;20405;-70
2022/10/10 05:10:24;;;;;;;11.75;5.57;;;;;;;8.31;100.00;101143.31;5033654;28;20017;-69
2022/10/10 05:12:50;;;;;;;11.32;5.00;;;;;;;8.26;100.00;101135.84;5035338;28;20025;-70
2022/10/10 05:15:16;;;;;;;9.35;5.25;;;;;;;8.29;100.00;101129.22;5031555;28;20079;-70
2022/10/10 05:17:41;;;;;;;7.55;4.90;;;;;;;8.26;100.00;101133.16;5033260;28;20037;-69
2022/10/10 05:20:07;;;;;;;8.45;4.93;;;;;;;8.25;100.00;101131.47;5033169;28;20083;-70
2022/10/10 05:22:33;;;;;;;8.73;5.07;;;;;;;8.24;100.00;101129.00;5030992;28;20037;-70
2022/10/10 05:24:58;;;;;;;9.55;5.05;;;;;;;8.26;100.00;101132.31;5030563;28;20030;-71
2022/10/10 05:27:25;;;;;;;9.55;4.95;;;;;;;8.23;100.00;101132.69;5037279;28;20040;-69
2022/10/10 05:29:50;;;;;;;8.30;5.22;;;;;;;8.27;100.00;101134.81;5011922;28;20362;-71
2022/10/10 05:32:18;;;;;;;8.02;5.28;;;;;;;8.25;100.00;101139.56;5013345;28;20030;-71
2022/10/10 05:34:44;;;;;;;8.95;5.30;;;;;;;8.28;100.00;101135.63;5013144;28;20049;-69
2022/10/10 05:37:10;;;;;;;11.10;5.70;;;;;;;8.25;100.00;101142.25;5012570;28;20064;-71
2022/10/10 05:39:35;;;;;;;8.73;4.93;;;;;;;8.27;100.00;101139.38;5015133;28;20017;-69
2022/10/10 05:42:01;;;;;;;10.65;5.18;;;;;;;8.25;100.00;101131.47;5038348;28;20021;-69
2022/10/10 05:44:26;;;;;;;8.02;5.20;;;;;;;8.24;100.00;101132.50;5027017;28;20561;-70
2022/10/10 05:46:51;;;;;;;8.70;5.55;;;;;;;8.22;100.00;101134.59;5030230;28;20033;-69
2022/10/10 05:49:17;;;;;;;10.73;5.40;;;;;;;8.23;100.00;101143.50;5012436;28;20783;-70
2022/10/10 05:51:42;;;;;;;9.75;5.20;;;;;;;8.22;100.00;101144.53;5019029;28;20026;-71
2022/10/10 05:54:07;;;;;;;9.80;5.25;;;;;;;8.22;100.00;101141.84;5012716;28;20021;-69
2022/10/10 05:56:33;;;;;;;11.35;5.50;;;;;;;8.19;100.00;101145.78;5033491;28;20032;-70
2022/10/10 05:58:58;;;;;;;13.85;5.45;;;;;;;8.22;100.00;101137.28;5014068;28;20032;-71
2022/10/10 06:01:23;;;;;;;9.10;4.88;;;;;;;8.22;100.00;101145.38;5010187;28;20018;-71
2022/10/10 06:03:51;;;;;;;8.90;5.25;;;;;;;8.26;100.00;101138.53;5020190;28;20020;-69
2022/10/10 06:06:17;;;;;;;6.30;4.90;;;;;;;8.23;100.00;101147.03;5012455;28;20397;-71
2022/10/10 06:08:43;;;;;;;8.02;5.10;;;;;;;8.22;100.00;101147.25;5012524;28;20026;-69
2022/10/10 06:11:09;;;;;;;9.27;5.30;;;;;;;8.24;100.00;101140.59;5033508;28;20025;-71
2022/10/10 06:13:37;;;;;;;13.50;4.82;;;;;;;8.26;100.00;101143.13;5031156;28;20091;-71
2022/10/10 06:16:02;;;;;;;10.77;4.93;;;;;;;8.24;100.00;101145.97;5030822;28;20033;-69
2022/10/10 06:18:28;;;;;;;11.10;5.10;;;;;;;8.26;100.00;101151.19;5016653;28;20030;-69
2022/10/10 06:20:54;;;;;;;13.23;5.35;;;;;;;8.28;100.00;101147.25;5012627;28;20068;-70
2022/10/10 06:23:19;;;;;;;7.30;5.00;;;;;;;8.29;100.00;101154.31;5027363;28;20045;-71
2022/10/10 06:25:45;;;;;;;10.20;5.32;;;;;;;8.30;100.00;101153.28;5032450;28;20048;-71
2022/10/10 06:28:12;;;;;;;11.15;5.28;;;;;;;8.36;100.00;101156.19;5027091;28;20036;-71
2022/10/10 06:30:42;;;;;;;9.27;5.53;;;;;;;8.36;100.00;101153.50;5012502;28;20037;-70
2022/10/10 06:33:08;;;;;;;16.50;5.38;;;;;;;8.41;100.00;101157.25;5012716;28;20037;-69
2022/10/10 06:35:37;;;;;;;11.38;5.50;;;;;;;8.44;100.00;101150.63;5015490;28;20028;-71
2022/10/10 06:38:03;;;;;;;12.10;5.75;;;;;;;8.42;100.00;101153.50;5025743;28;20302;-69
2022/10/10 06:40:28;;;;;;;11.70;5.55;;;;;;;8.45;100.00;101163.09;5036192;28;20303;-69
2022/10/10 06:42:53;;;;;;;10.15;5.38;;;;;;;8.48;100.00;101162.69;5036089;28;20024;-71
2022/10/10 06:45:18;;;;;;;11.32;5.68;;;;;;;8.51;100.00;101163.13;5035836;28;20033;-70
2022/10/10 06:47:44;;;;;;;9.60;5.93;;;;;;;8.55;100.00;101166.25;5035131;28;20025;-71
2022/10/10 06:50:10;;;;;;;13.27;5.53;;;;;;;8.55;100.00;101177.03;5036543;28;20083;-71
2022/10/10 06:52:35;;;;;;;11.07;5.70;;;;;;;8.56;100.00;101169.75;5037526;28;20025;-70
2022/10/10 06:55:00;;;;;;;11.57;6.03;;;;;;;8.64;100.00;101177.69;5040169;28;20025;-71
2022/10/10 06:57:27;;;;;;;13.35;6.03;;;;;;;8.67;100.00;101172.69;5021846;28;20360;-71
2022/10/10 06:59:52;;;;;;;9.73;5.20;;;;;;;8.73;100.00;101175.63;5035853;28;20065;-72
2022/10/10 07:02:18;;;;;;;15.18;5.70;;;;;;;8.78;100.00;101168.56;5032239;28;20060;-71
2022/10/10 07:04:43;;;;;;;10.98;5.78;;;;;;;8.81;100.00;101178.13;5035714;28;20021;-73
2022/10/10 07:07:09;;;;;;;13.13;6.38;;;;;;;8.87;100.00;101174.59;5034157;28;20033;-72
2022/10/10 07:09:34;;;;;;;13.02;6.10;;;;;;;8.89;100.00;101177.91;5035887;28;20056;-71
2022/10/10 07:11:59;;;;;;;12.65;6.43;;;;;;;8.98;100.00;101179.41;5036290;28;20021;-72
2022/10/10 07:14:25;;;;;;;13.90;5.35;;;;;;;9.06;100.00;101170.28;5037462;28;20025;-70
2022/10/10 07:16:50;;;;;;;12.73;6.18;;;;;;;9.10;100.00;101182.28;5033176;28;20030;-72
2022/10/10 07:19:15;;;;;;;16.55;6.82;;;;;;;9.18;100.00;101181.28;5015985;28;20025;-70
2022/10/10 07:21:41;;;;;;;15.07;6.20;;;;;;;9.22;100.00;101185.22;5021376;28;20021;-70
2022/10/10 07:24:06;;;;;;;11.00;6.57;;;;;;;9.32;100.00;101185.63;5035662;28;20026;-70
2022/10/10 07:26:36;;;;;;;13.60;7.00;;;;;;;9.38;100.00;101184.78;5029838;28;20518;-71
2022/10/10 07:29:02;;;;;;;17.58;6.55;;;;;;;9.46;100.00;101193.72;5015747;28;20034;-71
2022/10/10 07:31:27;;;;;;;16.42;6.97;;;;;;;9.55;100.00;101184.34;5015447;28;20025;-70
2022/10/10 07:33:52;;;;;;;15.15;6.85;;;;;;;9.62;100.00;101184.34;5035049;28;20026;-70
2022/10/10 07:36:18;;;;;;;13.07;7.38;;;;;;;9.67;100.00;101192.66;5035023;28;20037;-70
2022/10/10 07:38:43;;;;;;;14.68;7.00;;;;;;;9.74;100.00;101194.31;5027920;28;20360;-73
2022/10/10 07:41:12;;;;;;;14.98;7.43;;;;;;;9.81;100.00;101199.69;5015884;28;20026;-72
2022/10/10 07:43:37;;;;;;;14.93;6.22;;;;;;;9.90;100.00;101200.28;5015096;28;20037;-73
2022/10/10 07:46:04;;;;;;;12.50;6.45;;;;;;;10.00;100.00;101203.38;5014123;28;20104;-75
2022/10/10 07:48:30;;;;;;;16.00;7.22;;;;;;;10.10;100.00;101205.66;5014915;28;20018;-73
2022/10/10 07:50:58;;;;;;;13.30;6.93;;;;;;;10.17;100.00;101202.94;5017806;28;20436;-74
2022/10/10 07:53:24;;;;;;;14.05;6.57;;;;;;;10.24;100.00;101209.16;5035548;28;20021;-73
2022/10/10 07:55:49;;;;;;;14.43;6.55;;;;;;;10.30;100.00;101211.00;5034937;28;20100;-74
2022/10/10 07:58:14;;;;;;;11.25;6.43;;;;;;;10.36;100.00;101210.16;5033830;28;20041;-73
2022/10/10 08:00:40;;;;;;;14.90;6.72;;;;;;;10.39;100.00;101212.44;5030975;28;20460;-72
2022/10/10 08:03:07;;;;;;;13.90;6.70;;;;;;;10.47;100.00;101216.78;5032134;28;20033;-70
2022/10/10 08:05:33;;;;;;;13.13;6.60;;;;;;;10.54;100.00;101220.28;5032488;28;20028;-71
2022/10/10 08:07:59;;;;;;;12.65;6.25;;;;;;;10.64;100.00;101225.22;5018873;28;20022;-71
2022/10/10 08:10:24;;;;;;;12.95;6.15;;;;;;;10.72;100.00;101226.84;5040771;28;20037;-77
2022/10/10 08:12:49;;;;;;;15.88;6.63;;;;;;;10.79;100.00;101223.06;5034618;28;20021;-71
2022/10/10 08:15:15;;;;;;;13.10;6.80;;;;;;;10.88;100.00;101222.81;5023661;28;20080;-73
2022/10/10 08:17:40;;;;;;;15.25;6.38;;;;;;;10.93;100.00;101212.13;5029275;28;20025;-72
2022/10/10 08:20:06;;;;;;;12.07;6.38;;;;;;;11.01;100.00;101217.31;5032207;28;20083;-72
2022/10/10 08:22:31;;;;;;;15.13;6.25;;;;;;;11.10;100.00;101223.28;5035542;28;20159;-71
2022/10/10 08:24:56;;;;;;;11.93;5.80;;;;;;;11.18;100.00;101214.88;5017718;28;20338;-71
2022/10/10 08:27:22;;;;;;;14.68;6.38;;;;;;;11.27;100.00;101223.56;5013921;28;20050;-71
2022/10/10 08:29:47;;;;;;;10.70;5.43;;;;;;;11.34;100.00;101218.94;5014346;28;20034;-70
2022/10/10 08:32:13;;;;;;;12.45;5.88;;;;;;;11.43;100.00;101220.31;5014624;28;20108;-71
2022/10/10 08:34:38;;;;;;;20.25;5.85;;;;;;;11.47;100.00;101224.25;5022001;28;20100;-70
2022/10/10 08:37:03;;;;;;;10.43;5.40;;;;;;;11.56;100.00;101234.81;5026205;28;20351;-72
2022/10/10 08:39:31;;;;;;;12.70;5.80;;;;;;;11.66;100.00;101232.41;5014390;28;20018;-70
2022/10/10 08:41:59;;;;;;;10.82;5.50;;;;;;;11.73;100.00;101222.34;5029611;28;20033;-70
2022/10/10 08:44:37;;;;;;;12.32;5.22;;;;;;;11.85;100.00;101223.25;5015788;28;20025;-72
2022/10/10 08:47:10;;;;;;;12.90;5.25;;;;;;;11.97;100.00;101225.25;5022937;28;20037;-70
2022/10/10 08:49:47;;;;;;;17.45;6.28;;;;;;;12.07;100.00;101222.03;5029372;28;20057;-71
2022/10/10 08:52:33;;;;;;;9.90;5.38;;;;;;;12.14;100.00;101226.31;5030725;28;20026;-71
2022/10/10 08:55:11;;;;;;;9.90;5.20;;;;;;;12.26;100.00;101225.56;5013593;28;20116;-70
2022/10/10 08:57:54;;;;;;;11.80;5.75;;;;;;;12.39;100.00;101214.53;5013066;28;20018;-70
2022/10/10 09:00:23;;;;;;;10.93;5.65;;;;;;;12.52;100.00;101218.97;5013769;28;20033;-71
2022/10/10 09:02:57;;;;;;;11.23;5.72;;;;;;;12.62;100.00;101230.13;5010680;28;20072;-71
2022/10/10 09:05:44;;;;;;;11.90;4.80;;;;;;;12.69;100.00;101228.13;5032175;28;20041;-71
2022/10/10 09:08:32;;;;;;;12.55;5.22;;;;;;;12.79;100.00;101226.75;5033641;28;20025;-71
2022/10/10 09:11:31;;;;;;;10.20;5.05;;;;;;;12.83;100.00;101226.09;5020990;28;20469;-71
2022/10/10 09:14:07;;;;;;;9.85;4.80;;;;;;;12.86;100.00;101230.19;5012581;28;20053;-70
2022/10/10 09:16:38;;;;;;;12.15;5.63;;;;;;;12.93;100.00;101234.47;5013562;28;20026;-70
2022/10/10 09:19:13;;;;;;;;;;;;;;;12.99;100.00;101245.50;5019633;28;20088;-70
2022/10/10 09:21:40;;;;;;;12.77;5.13;;;;;;;13.04;100.00;101246.44;5021354;28;19913;-71
2022/10/10 09:24:19;;;;;;;11.55;5.03;;;;;;;13.08;100.00;101239.47;5013856;28;20428;-70
2022/10/10 09:26:54;;;;;;;14.07;5.07;;;;;;;13.11;100.00;101244.44;5021712;28;20488;-71
2022/10/10 09:29:37;;;;;;;11.38;4.90;;;;;;;13.20;100.00;101249.56;5031129;28;20029;-71
2022/10/10 09:32:13;;;;;;;11.88;4.90;;;;;;;13.24;100.00;101264.31;5013534;28;20060;-71
2022/10/10 09:34:47;;;;;;;11.95;5.70;;;;;;;13.32;100.00;101265.91;5039349;28;20037;-70
2022/10/10 09:37:16;;;;;;;9.02;5.20;;;;;;;13.41;100.00;101259.09;5051686;28;20028;-71
2022/10/10 09:39:50;;;;;;;16.17;5.78;;;;;;;13.45;100.00;101265.69;5027240;28;20454;-70
2022/10/10 09:42:24;;;;;;;12.75;5.30;;;;;;;13.50;100.00;101268.56;5013276;28;20030;-70
2022/10/10 09:44:49;;;;;;;11.38;5.18;;;;;;;13.59;100.00;101267.16;5012969;28;20033;-70
2022/10/10 09:47:16;;;;;;;8.43;4.95;;;;;;;13.72;100.00;101267.97;5020218;28;20025;-70
2022/10/10 09:49:44;;;;;;;7.25;5.05;;;;;;;13.75;100.00;101272.94;5021552;28;20034;-70
2022/10/10 09:52:30;;;;;;;10.93;4.93;;;;;;;13.80;100.00;101281.25;5013109;28;20053;-70
2022/10/10 09:55:13;;;;;;;16.77;4.95;;;;;;;13.83;100.00;101272.63;5028072;28;20104;-70
2022/10/10 09:57:41;;;;;;;10.90;4.70;;;;;;;13.84;100.00;101282.41;5012918;28;20033;-70
2022/10/10 10:00:32;;;;;;;13.93;4.53;;;;;;;13.89;100.00;101281.69;5012316;28;20033;-70
2022/10/10 10:03:18;;;;;;;8.18;4.82;;;;;;;13.89;100.00;101277.09;5029211;28;20025;-70
2022/10/10 10:06:03;;;;;;;9.20;4.68;;;;;;;13.96;100.00;101283.22;5032169;28;20045;-70
2022/10/10 10:08:32;;;;;;;11.55;4.78;;;;;;;13.96;100.00;101285.94;5031482;28;20037;-70
2022/10/10 10:10:58;;;;;;;12.98;5.25;;;;;;;13.99;100.00;101280.06;5012150;28;20077;-71
2022/10/10 10:13:30;;;;;;;16.70;5.00;;;;;;;14.00;100.00;101286.31;5012816;28;20030;-69
2022/10/10 10:16:07;;;;;;;13.13;5.03;;;;;;;14.00;100.00;101284.41;5012086;28;20112;-70
2022/10/10 10:18:46;;;;;;;10.73;4.80;;;;;;;14.00;100.00;101287.16;5025891;28;20033;-70
2022/10/10 10:21:16;;;;;;;11.05;4.75;;;;;;;14.01;100.00;101290.72;5022386;28;20454;-71
2022/10/10 10:23:43;;;;;;;11.48;4.78;;;;;;;14.03;100.00;101295.91;5031717;28;20041;-70
2022/10/10 10:26:41;;;;;;;14.70;5.78;;;;;;;14.01;100.00;101285.28;5032263;28;20033;-71
2022/10/10 10:29:26;;;;;;;11.60;5.30;;;;;;;14.09;100.00;101289.53;5033536;28;20109;-70
2022/10/10 10:32:03;;;;;;;15.10;5.72;;;;;;;14.18;100.00;101279.94;5023590;28;20350;-69
2022/10/10 10:34:48;;;;;;;14.75;5.00;;;;;;;14.24;100.00;101283.59;5011430;28;20452;-72
2022/10/10 10:37:24;;;;;;;12.35;5.40;;;;;;;14.32;100.00;101292.19;5017116;28;20033;-71
2022/10/10 10:40:11;;;;;;;13.77;5.78;;;;;;;14.45;100.00;101296.56;5024321;28;20026;-72
2022/10/10 10:42:52;;;;;;;14.65;5.43;;;;;;;14.52;100.00;101293.69;5031074;28;20076;-71
2022/10/10 10:45:27;;;;;;;;;;;;;;;14.60;98.26;101298.78;5047241;28;20026;-70
2022/10/10 10:48:14;;;;;;;12.98;5.10;;;;;;;14.59;99.50;101302.56;5030375;28;19912;-74
2022/10/10 10:50:54;;;;;;;12.68;4.68;;;;;;;14.60;99.73;101311.56;5012082;28;20049;-72
2022/10/10 10:53:51;;;;;;;10.35;4.45;;;;;;;14.66;99.80;101313.34;5011190;28;20038;-72
2022/10/10 10:56:39;;;;;;;14.18;4.88;;;;;;;14.71;96.67;101311.56;5016393;28;20049;-71
2022/10/10 10:59:25;;;;;;;12.80;4.95;;;;;;;14.77;96.86;101322.56;5022719;28;20030;-73
2022/10/10 11:01:58;;;;;;;10.77;4.47;;;;;;;14.81;95.04;101318.28;5018734;28;20080;-71
2022/10/10 11:04:52;;;;;;;12.75;4.90;;;;;;;14.87;95.65;101320.88;5031031;28;20033;-72
2022/10/10 11:07:25;;;;;;;13.07;4.57;;;;;;;14.89;94.47;101323.38;5018301;28;20026;-74
2022/10/10 11:10:16;;;;;;;13.15;4.45;;;;;;;14.94;94.21;101331.63;5048421;28;20025;-72
2022/10/10 11:13:00;;;;;;;11.60;5.05;;;;;;;14.94;98.22;101325.38;5031827;28;20017;-74
2022/10/10 11:15:38;;;;;;;14.18;5.00;;;;;;;14.93;94.38;101329.16;5032053;28;20039;-72
2022/10/10 11:18:35;;;;;;;16.42;5.22;;;;;;;14.90;90.40;101338.66;5027050;28;20041;-72
2022/10/10 11:21:05;;;;;;;10.75;4.90;;;;;;;14.95;96.49;101341.47;5029082;28;20041;-72
2022/10/10 11:23:37;;;;;;;11.90;4.60;;;;;;;15.02;94.98;101341.31;5035025;28;20433;-72
2022/10/10 11:26:16;;;;;;;9.60;4.60;;;;;;;15.06;90.41;101335.13;5035742;28;20025;-73
2022/10/10 11:29:22;;;;;;;11.10;4.75;;;;;;;15.15;94.56;101345.66;5031407;28;20068;-73
2022/10/10 11:32:01;;;;;;;14.40;5.35;;;;;;;15.23;90.29;101342.53;4991133;28;20046;-73
2022/10/10 11:34:37;;;;;;;12.55;4.97;;;;;;;15.29;90.33;101338.00;5031481;28;20103;-72
2022/10/10 11:37:06;;;;;;;13.05;4.75;;;;;;;15.29;85.25;101333.38;5015172;28;20022;-72